createdAt,value
2017-07-22T00:00:42.315Z,18.20
2017-07-22T00:03:09.759Z,18.20
2017-07-22T00:05:37.203Z,18.20
2017-07-22T00:08:04.663Z,18.20
2017-07-22T00:10:32.100Z,18.20
2017-07-22T00:12:59.539Z,18.20
2017-07-22T00:15:26.989Z,18.20
2017-07-22T00:17:54.486Z,18.20
2017-07-22T00:20:21.941Z,18.20
2017-07-22T00:22:49.379Z,18.20
2017-07-22T00:25:16.835Z,18.30
2017-07-22T00:27:44.319Z,18.30
2017-07-22T00:30:11.757Z,18.30
2017-07-22T00:32:39.188Z,18.30
2017-07-22T00:35:06.630Z,18.40
2017-07-22T00:37:34.074Z,18.30
2017-07-22T00:40:01.521Z,18.40
2017-07-22T00:42:29.763Z,18.40
2017-07-22T00:44:57.224Z,18.30
2017-07-22T00:47:24.681Z,18.30
2017-07-22T00:49:52.172Z,18.30
2017-07-22T00:52:19.682Z,18.30
2017-07-22T00:54:47.131Z,18.30
2017-07-22T00:57:14.597Z,18.30
2017-07-22T00:59:42.049Z,18.30
2017-07-22T01:02:09.499Z,18.30
2017-07-22T01:04:36.942Z,18.30
2017-07-22T01:07:04.372Z,18.30
2017-07-22T01:09:31.878Z,18.30
2017-07-22T01:11:59.338Z,18.30
2017-07-22T01:14:26.794Z,18.30
2017-07-22T01:16:54.351Z,18.40
2017-07-22T01:19:21.809Z,18.30
2017-07-22T01:21:49.266Z,18.40
2017-07-22T01:24:16.695Z,18.30
2017-07-22T01:26:44.143Z,18.30
2017-07-22T01:29:11.572Z,18.30
2017-07-22T01:31:39.051Z,18.20
2017-07-22T01:34:06.536Z,18.20
2017-07-22T01:36:34.019Z,18.20
2017-07-22T01:39:02.244Z,18.20
2017-07-22T01:41:29.694Z,18.10
2017-07-22T01:43:57.131Z,18.20
2017-07-22T01:46:24.626Z,18.20
2017-07-22T01:48:52.054Z,18.10
2017-07-22T01:51:19.514Z,18.20
2017-07-22T01:53:47.003Z,18.10
2017-07-22T01:56:14.467Z,18.10
2017-07-22T01:58:41.916Z,18.00
2017-07-22T02:01:09.386Z,18.00
2017-07-22T02:03:36.851Z,17.90
2017-07-22T02:06:04.359Z,17.90
2017-07-22T02:08:31.844Z,17.90
2017-07-22T02:10:59.291Z,17.90
2017-07-22T02:13:26.723Z,17.90
2017-07-22T02:15:54.225Z,17.90
2017-07-22T02:18:21.685Z,17.90
2017-07-22T02:20:49.115Z,17.90
2017-07-22T02:23:16.563Z,17.90
2017-07-22T02:25:44.035Z,17.90
2017-07-22T02:28:11.481Z,17.90
2017-07-22T02:30:38.938Z,17.90
2017-07-22T02:33:06.531Z,17.90
2017-07-22T02:35:33.976Z,17.90
2017-07-22T02:38:01.425Z,17.90
2017-07-22T02:40:28.866Z,17.90
2017-07-22T02:42:56.309Z,17.90
2017-07-22T02:45:23.808Z,17.90
2017-07-22T02:47:51.257Z,17.90
2017-07-22T02:50:18.697Z,17.90
2017-07-22T02:52:46.155Z,17.90
2017-07-22T02:55:13.603Z,18.00
2017-07-22T02:57:41.043Z,18.00
2017-07-22T03:00:08.480Z,18.00
2017-07-22T03:02:35.976Z,18.10
2017-07-22T03:05:03.454Z,18.10
2017-07-22T03:07:30.890Z,18.10
2017-07-22T03:09:58.351Z,18.10
2017-07-22T03:12:25.784Z,18.10
2017-07-22T03:14:53.230Z,18.10
2017-07-22T03:17:20.664Z,18.10
2017-07-22T03:19:48.883Z,18.20
2017-07-22T03:22:16.374Z,18.20
2017-07-22T03:24:43.813Z,18.20
2017-07-22T03:27:11.254Z,18.20
2017-07-22T03:29:38.843Z,18.20
2017-07-22T03:32:06.307Z,18.20
2017-07-22T03:34:34.581Z,18.20
2017-07-22T03:37:02.130Z,18.10
2017-07-22T03:39:29.573Z,18.20
2017-07-22T03:41:57.045Z,18.10
2017-07-22T03:44:24.474Z,18.10
2017-07-22T03:46:51.925Z,18.10
2017-07-22T03:49:19.413Z,18.10
2017-07-22T03:51:46.861Z,18.10
2017-07-22T03:54:14.387Z,18.10
2017-07-22T03:56:41.885Z,18.00
2017-07-22T03:59:09.322Z,18.00
2017-07-22T04:01:36.775Z,17.90
2017-07-22T04:04:04.232Z,17.90
2017-07-22T04:06:31.677Z,17.90
2017-07-22T04:08:59.121Z,17.90
2017-07-22T04:11:26.594Z,17.90
2017-07-22T04:13:54.166Z,17.90
2017-07-22T04:16:21.724Z,18.00
2017-07-22T04:18:49.197Z,18.10
2017-07-22T04:21:16.623Z,18.00
2017-07-22T04:23:44.065Z,18.00
2017-07-22T04:26:11.575Z,18.10
2017-07-22T04:28:39.110Z,18.10
2017-07-22T04:31:06.637Z,18.20
2017-07-22T04:33:34.075Z,18.10
2017-07-22T04:36:01.522Z,18.20
2017-07-22T04:38:29.769Z,18.20
2017-07-22T04:40:57.199Z,18.20
2017-07-22T04:43:24.664Z,18.30
2017-07-22T04:45:52.143Z,18.40
2017-07-22T04:48:20.347Z,18.40
2017-07-22T04:50:47.848Z,18.40
2017-07-22T04:53:15.283Z,18.40
2017-07-22T04:55:42.738Z,18.40
2017-07-22T04:58:10.232Z,18.40
2017-07-22T05:00:38.482Z,18.40
2017-07-22T05:03:05.950Z,18.40
2017-07-22T05:05:33.387Z,18.50
2017-07-22T05:08:00.854Z,18.60
2017-07-22T05:10:28.291Z,18.60
2017-07-22T05:12:55.878Z,18.60
2017-07-22T05:15:23.412Z,18.70
2017-07-22T05:17:50.854Z,18.70
2017-07-22T05:20:18.382Z,18.70
2017-07-22T05:22:45.886Z,18.70
2017-07-22T05:25:13.338Z,18.80
2017-07-22T05:27:40.794Z,18.90
2017-07-22T05:30:08.258Z,18.90
2017-07-22T05:32:35.716Z,18.90
2017-07-22T05:35:03.156Z,19.00
2017-07-22T05:37:30.630Z,19.00
2017-07-22T05:39:58.080Z,19.00
2017-07-22T05:42:25.765Z,19.20
2017-07-22T05:44:53.197Z,19.30
2017-07-22T05:47:20.715Z,19.40
2017-07-22T05:49:48.157Z,19.60
2017-07-22T05:52:15.813Z,19.80
2017-07-22T05:54:43.296Z,19.80
2017-07-22T05:57:10.747Z,19.80
2017-07-22T05:59:38.193Z,19.80
2017-07-22T06:02:05.645Z,19.80
2017-07-22T06:04:33.107Z,19.70
2017-07-22T06:07:00.570Z,19.60
2017-07-22T06:09:28.001Z,19.70
2017-07-22T06:11:55.436Z,19.70
2017-07-22T06:14:22.927Z,19.70
2017-07-22T06:16:50.465Z,19.80
2017-07-22T06:19:17.946Z,19.80
2017-07-22T06:21:46.200Z,19.90
2017-07-22T06:24:13.629Z,19.80
2017-07-22T06:26:41.072Z,19.80
2017-07-22T06:29:08.539Z,19.90
2017-07-22T06:31:35.994Z,20.00
2017-07-22T06:34:03.484Z,20.10
2017-07-22T06:36:30.907Z,20.20
2017-07-22T06:38:58.391Z,20.40
2017-07-22T06:41:25.932Z,20.40
2017-07-22T06:43:53.387Z,20.40
2017-07-22T06:46:20.827Z,20.40
2017-07-22T06:48:48.301Z,20.60
2017-07-22T06:51:15.829Z,20.60
2017-07-22T06:53:43.414Z,20.50
2017-07-22T06:56:10.849Z,20.60
2017-07-22T06:58:38.390Z,20.40
2017-07-22T07:01:05.850Z,20.50
2017-07-22T07:03:33.315Z,20.50
2017-07-22T07:06:00.747Z,20.60
2017-07-22T07:08:28.207Z,20.60
2017-07-22T07:10:55.649Z,20.60
2017-07-22T07:13:23.146Z,20.50
2017-07-22T07:15:50.695Z,20.50
2017-07-22T07:18:18.247Z,20.60
2017-07-22T07:20:45.700Z,20.60
2017-07-22T07:23:13.237Z,20.60
2017-07-22T07:25:40.669Z,20.70
2017-07-22T07:28:08.106Z,20.70
2017-07-22T07:30:36.350Z,20.60
2017-07-22T07:33:03.797Z,20.60
2017-07-22T07:35:31.278Z,20.70
2017-07-22T07:37:58.736Z,20.60
2017-07-22T07:40:26.351Z,20.70
2017-07-22T07:42:53.833Z,20.80
2017-07-22T07:45:21.262Z,21.00
2017-07-22T07:47:48.694Z,21.00
2017-07-22T07:50:16.278Z,21.20
2017-07-22T07:52:43.880Z,21.10
2017-07-22T07:55:11.379Z,21.10
2017-07-22T07:57:38.838Z,21.10
2017-07-22T08:00:06.271Z,21.10
2017-07-22T08:02:34.487Z,21.20
2017-07-22T08:05:02.040Z,21.20
2017-07-22T08:07:29.537Z,21.10
2017-07-22T08:09:56.959Z,21.00
2017-07-22T08:12:24.453Z,21.00
2017-07-22T08:14:51.969Z,20.90
2017-07-22T08:17:19.403Z,20.80
2017-07-22T08:19:46.923Z,20.80
2017-07-22T08:22:14.507Z,20.90
2017-07-22T08:24:42.018Z,21.00
2017-07-22T08:27:09.470Z,21.00
2017-07-22T08:29:36.909Z,21.20
2017-07-22T08:32:04.399Z,21.20
2017-07-22T08:34:31.838Z,21.40
2017-07-22T08:36:59.322Z,21.50
2017-07-22T08:39:27.545Z,21.60
2017-07-22T08:41:55.052Z,21.50
2017-07-22T08:44:22.590Z,21.50
2017-07-22T08:46:50.079Z,21.60
2017-07-22T08:49:18.299Z,21.60
2017-07-22T08:51:45.731Z,21.60
2017-07-22T08:54:13.169Z,21.60
2017-07-22T08:56:41.430Z,21.60
2017-07-22T08:59:08.980Z,21.50
2017-07-22T09:01:36.411Z,21.50
2017-07-22T09:04:03.878Z,21.50
2017-07-22T09:06:31.363Z,21.50
2017-07-22T09:08:58.914Z,21.50
2017-07-22T09:11:26.473Z,21.50
2017-07-22T09:13:54.029Z,21.50
2017-07-22T09:16:21.503Z,21.50
2017-07-22T09:18:49.035Z,21.60
2017-07-22T09:21:16.591Z,21.60
2017-07-22T09:23:44.068Z,21.50
2017-07-22T09:26:11.535Z,21.50
2017-07-22T09:28:39.839Z,21.50
2017-07-22T09:31:07.339Z,21.50
2017-07-22T09:33:35.224Z,21.40
2017-07-22T09:36:03.245Z,21.30
2017-07-22T09:38:32.048Z,21.20
2017-07-22T09:40:59.965Z,21.20
2017-07-22T09:43:27.973Z,21.10
2017-07-22T09:45:55.938Z,21.20
2017-07-22T09:48:24.112Z,21.20
2017-07-22T09:50:51.958Z,21.30
2017-07-22T09:53:20.764Z,21.30
2017-07-22T09:55:48.738Z,21.20
2017-07-22T09:58:16.392Z,21.20
2017-07-22T10:00:43.820Z,21.10
2017-07-22T10:03:12.027Z,21.10
2017-07-22T10:05:39.477Z,21.00
2017-07-22T10:08:07.054Z,21.00
2017-07-22T10:10:34.525Z,20.90
2017-07-22T10:13:01.981Z,20.80
2017-07-22T10:15:29.445Z,20.70
2017-07-22T10:17:56.991Z,20.70
2017-07-22T10:20:24.442Z,20.70
2017-07-22T10:22:51.883Z,20.50
2017-07-22T10:25:19.369Z,20.30
2017-07-22T10:27:46.824Z,20.20
2017-07-22T10:30:14.276Z,20.10
2017-07-22T10:32:41.736Z,20.00
2017-07-22T10:35:09.294Z,20.00
2017-07-22T10:37:36.829Z,20.00
2017-07-22T10:40:04.308Z,19.90
2017-07-22T10:42:31.762Z,19.80
2017-07-22T10:44:59.195Z,19.80
2017-07-22T10:47:26.649Z,19.80
2017-07-22T10:49:54.210Z,19.80
2017-07-22T10:52:21.696Z,19.80
2017-07-22T10:54:49.243Z,19.70
2017-07-22T10:57:16.694Z,19.70
2017-07-22T10:59:44.169Z,19.60
2017-07-22T11:02:11.626Z,19.60
2017-07-22T11:04:39.176Z,19.60
2017-07-22T11:07:06.620Z,19.60
2017-07-22T11:09:34.055Z,19.60
2017-07-22T11:12:01.573Z,19.60
2017-07-22T11:14:29.912Z,19.70
2017-07-22T11:16:57.388Z,19.70
2017-07-22T11:19:24.956Z,19.90
2017-07-22T11:21:52.411Z,19.90
2017-07-22T11:24:19.858Z,20.00
2017-07-22T11:26:47.342Z,20.00
2017-07-22T11:29:15.562Z,20.10
2017-07-22T11:31:43.020Z,20.10
2017-07-22T11:34:10.463Z,20.10
2017-07-22T11:36:37.947Z,20.10
2017-07-22T11:39:05.529Z,20.20
2017-07-22T11:41:32.968Z,20.40
2017-07-22T11:44:00.407Z,20.50
2017-07-22T11:46:27.949Z,20.60
2017-07-22T11:48:55.509Z,20.70
2017-07-22T11:51:22.987Z,20.80
2017-07-22T11:53:50.466Z,20.70
2017-07-22T11:56:17.909Z,20.60
2017-07-22T11:58:45.389Z,20.60
2017-07-22T12:01:13.591Z,20.60
2017-07-22T12:03:41.140Z,20.60
2017-07-22T12:06:08.652Z,20.80
2017-07-22T12:08:36.241Z,20.80
2017-07-22T12:11:04.488Z,21.00
2017-07-22T12:13:31.927Z,21.00
2017-07-22T12:15:59.359Z,21.10
2017-07-22T12:18:26.858Z,21.10
2017-07-22T12:20:54.328Z,21.20
2017-07-22T12:23:21.799Z,21.20
2017-07-22T12:25:50.027Z,21.20
2017-07-22T12:28:17.574Z,21.20
2017-07-22T12:30:45.047Z,21.30
2017-07-22T12:33:12.589Z,21.30
2017-07-22T12:35:40.070Z,21.30
2017-07-22T12:38:07.605Z,21.50
2017-07-22T12:40:35.031Z,21.60
2017-07-22T12:43:02.488Z,21.70
2017-07-22T12:45:30.729Z,21.50
2017-07-22T12:47:58.251Z,21.40
2017-07-22T12:50:25.720Z,21.40
2017-07-22T12:52:53.262Z,21.50
2017-07-22T12:55:20.716Z,21.50
2017-07-22T12:57:48.221Z,21.40
2017-07-22T13:00:15.677Z,21.40
2017-07-22T13:02:43.179Z,21.40
2017-07-22T13:05:10.632Z,21.40
2017-07-22T13:07:38.081Z,21.40
2017-07-22T13:10:05.541Z,21.50
2017-07-22T13:12:33.036Z,21.60
2017-07-22T13:15:00.499Z,21.70
2017-07-22T13:17:27.978Z,21.90
2017-07-22T13:19:55.587Z,22.20
2017-07-22T13:22:23.029Z,22.30
2017-07-22T13:24:50.587Z,22.50
2017-07-22T13:27:18.102Z,22.60
2017-07-22T13:29:45.533Z,22.60
2017-07-22T13:32:12.985Z,22.70
2017-07-22T13:34:40.461Z,23.00
2017-07-22T13:37:08.021Z,23.20
2017-07-22T13:39:35.646Z,23.20
2017-07-22T13:42:03.208Z,23.30
2017-07-22T13:44:30.643Z,23.50
2017-07-22T13:46:58.084Z,23.50
2017-07-22T13:49:25.595Z,23.40
2017-07-22T13:51:53.061Z,23.20
2017-07-22T13:54:20.587Z,22.90
2017-07-22T13:56:48.045Z,22.60
2017-07-22T13:59:15.623Z,22.20
2017-07-22T14:01:43.102Z,22.00
2017-07-22T14:04:10.606Z,21.90
2017-07-22T14:06:38.059Z,21.90
2017-07-22T14:09:05.501Z,21.80
2017-07-22T14:11:32.957Z,21.80
2017-07-22T14:14:01.189Z,21.60
2017-07-22T14:16:28.651Z,21.60
2017-07-22T14:18:56.106Z,21.50
2017-07-22T14:21:23.572Z,21.50
2017-07-22T14:23:50.999Z,21.40
2017-07-22T14:26:18.451Z,21.30
2017-07-22T14:28:45.920Z,21.30
2017-07-22T14:31:13.382Z,21.30
2017-07-22T14:33:40.835Z,21.30
2017-07-22T14:36:08.292Z,21.40
2017-07-22T14:38:35.749Z,21.20
2017-07-22T14:41:03.281Z,21.20
2017-07-22T14:43:30.776Z,21.20
2017-07-22T14:45:58.328Z,21.10
2017-07-22T14:48:25.770Z,21.00
2017-07-22T14:50:53.217Z,21.00
2017-07-22T14:53:20.679Z,20.90
2017-07-22T14:55:48.147Z,20.80
2017-07-22T14:58:15.610Z,20.80
2017-07-22T15:00:43.061Z,20.80
2017-07-22T15:03:10.534Z,20.80
2017-07-22T15:05:37.999Z,20.80
2017-07-22T15:08:05.459Z,20.80
2017-07-22T15:10:33.821Z,20.80
2017-07-22T15:13:01.322Z,20.70
2017-07-22T15:15:28.763Z,20.70
2017-07-22T15:17:57.009Z,20.70
2017-07-22T15:20:24.669Z,20.60
2017-07-22T15:22:52.236Z,20.70
2017-07-22T15:25:19.707Z,20.70
2017-07-22T15:27:47.235Z,20.70
2017-07-22T15:30:14.691Z,20.80
2017-07-22T15:32:43.036Z,20.80
2017-07-22T15:35:10.496Z,20.80
2017-07-22T15:37:37.933Z,20.90
2017-07-22T15:40:05.416Z,20.90
2017-07-22T15:42:32.933Z,21.00
2017-07-22T15:45:00.487Z,21.00
2017-07-22T15:47:28.073Z,21.10
2017-07-22T15:49:55.514Z,21.10
2017-07-22T15:52:22.968Z,21.10
2017-07-22T15:54:50.478Z,21.00
2017-07-22T15:57:17.932Z,21.00
2017-07-22T15:59:46.258Z,21.00
2017-07-22T16:02:13.734Z,20.90
2017-07-22T16:04:41.187Z,21.10
2017-07-22T16:07:09.053Z,21.00
2017-07-22T16:09:36.499Z,21.00
2017-07-22T16:12:03.958Z,20.90
2017-07-22T16:14:31.397Z,20.90
2017-07-22T16:16:58.887Z,20.90
2017-07-22T16:19:26.437Z,20.90
2017-07-22T16:21:53.927Z,20.90
2017-07-22T16:24:22.244Z,20.70
2017-07-22T16:26:49.803Z,20.60
2017-07-22T16:29:17.299Z,20.70
2017-07-22T16:31:44.817Z,20.80
2017-07-22T16:34:12.290Z,20.70
2017-07-22T16:36:39.752Z,20.60
2017-07-22T16:39:07.291Z,20.60
2017-07-22T16:41:34.710Z,20.60
2017-07-22T16:44:02.933Z,20.60
2017-07-22T16:46:30.403Z,20.60
2017-07-22T16:48:57.852Z,20.60
2017-07-22T16:51:25.313Z,20.60
2017-07-22T16:53:52.768Z,20.50
2017-07-22T16:56:20.222Z,20.50
2017-07-22T16:58:47.690Z,20.60
2017-07-22T17:01:15.126Z,20.70
2017-07-22T17:03:42.587Z,20.80
2017-07-22T17:06:10.067Z,20.80
2017-07-22T17:08:37.606Z,20.90
2017-07-22T17:11:05.087Z,21.00
2017-07-22T17:13:33.310Z,21.00
2017-07-22T17:16:00.796Z,21.00
2017-07-22T17:18:28.257Z,21.10
2017-07-22T17:20:55.710Z,21.10
2017-07-22T17:23:23.344Z,21.00
2017-07-22T17:25:50.887Z,21.00
2017-07-22T17:28:18.417Z,21.00
2017-07-22T17:30:46.632Z,21.00
2017-07-22T17:33:14.148Z,21.00
2017-07-22T17:35:41.603Z,21.00
2017-07-22T17:38:09.840Z,21.10
2017-07-22T17:40:37.277Z,21.00
2017-07-22T17:43:04.784Z,21.10
2017-07-22T17:45:32.255Z,21.20
2017-07-22T17:47:59.766Z,21.10
2017-07-22T17:50:27.237Z,21.00
2017-07-22T17:52:54.781Z,21.00
2017-07-22T17:55:22.251Z,21.10
2017-07-22T17:57:49.690Z,21.00
2017-07-22T18:00:17.137Z,21.00
2017-07-22T18:02:44.592Z,21.00
2017-07-22T18:05:12.134Z,21.00
2017-07-22T18:07:39.669Z,21.00
2017-07-22T18:10:07.103Z,21.00
2017-07-22T18:12:34.648Z,21.10
2017-07-22T18:15:02.114Z,21.10
2017-07-22T18:17:29.582Z,21.10
2017-07-22T18:19:57.027Z,21.10
2017-07-22T18:22:24.487Z,21.20
2017-07-22T18:24:52.044Z,21.20
2017-07-22T18:27:19.481Z,21.10
2017-07-22T18:29:46.953Z,21.10
2017-07-22T18:32:14.459Z,21.10
2017-07-22T18:34:41.950Z,21.10
2017-07-22T18:37:09.414Z,21.00
2017-07-22T18:39:36.866Z,20.90
2017-07-22T18:42:04.332Z,20.80
2017-07-22T18:44:31.941Z,20.70
2017-07-22T18:46:59.384Z,20.70
2017-07-22T18:49:26.899Z,20.60
2017-07-22T18:51:54.453Z,20.60
2017-07-22T18:54:21.917Z,20.60
2017-07-22T18:56:49.404Z,20.50
2017-07-22T18:59:17.669Z,20.50
2017-07-22T19:01:45.205Z,20.50
2017-07-22T19:04:12.673Z,20.40
2017-07-22T19:06:40.119Z,20.40
2017-07-22T19:09:07.569Z,20.30
2017-07-22T19:11:35.043Z,20.40
2017-07-22T19:14:02.485Z,20.40
2017-07-22T19:16:29.946Z,20.20
2017-07-22T19:18:57.403Z,20.20
2017-07-22T19:21:24.906Z,20.30
2017-07-22T19:23:52.492Z,20.30
2017-07-22T19:26:19.912Z,20.30
2017-07-22T19:28:48.158Z,20.30
2017-07-22T19:31:15.619Z,20.20
2017-07-22T19:33:43.085Z,20.20
2017-07-22T19:36:11.310Z,20.20
2017-07-22T19:38:38.756Z,20.10
2017-07-22T19:41:06.242Z,20.20
2017-07-22T19:43:33.718Z,20.10
2017-07-22T19:46:01.205Z,20.00
2017-07-22T19:48:29.433Z,20.00
2017-07-22T19:50:56.890Z,19.90
2017-07-22T19:53:24.327Z,20.00
2017-07-22T19:55:51.764Z,20.00
2017-07-22T19:58:19.247Z,19.90
2017-07-22T20:00:46.728Z,19.80
2017-07-22T20:03:14.276Z,19.70
2017-07-22T20:05:41.804Z,19.60
2017-07-22T20:08:09.293Z,19.50
2017-07-22T20:10:36.750Z,19.50
2017-07-22T20:13:04.193Z,19.40
2017-07-22T20:15:31.654Z,19.30
2017-07-22T20:17:59.120Z,19.30
2017-07-22T20:20:26.581Z,19.30
2017-07-22T20:22:54.825Z,19.40
2017-07-22T20:25:22.271Z,19.30
2017-07-22T20:27:49.751Z,19.50
2017-07-22T20:30:17.215Z,19.50
2017-07-22T20:32:44.779Z,19.50
2017-07-22T20:35:12.219Z,19.50
2017-07-22T20:37:39.684Z,19.50
2017-07-22T20:40:07.150Z,19.50
2017-07-22T20:42:34.601Z,19.40
2017-07-22T20:45:02.120Z,19.50
2017-07-22T20:47:29.606Z,19.40
2017-07-22T20:49:57.179Z,19.40
2017-07-22T20:52:24.619Z,19.40
2017-07-22T20:54:52.064Z,19.50
2017-07-22T20:57:19.543Z,19.40
2017-07-22T20:59:46.987Z,19.40
2017-07-22T21:02:14.427Z,19.40
2017-07-22T21:04:41.895Z,19.30
2017-07-22T21:07:09.355Z,19.30
2017-07-22T21:09:36.816Z,19.20
2017-07-22T21:12:04.282Z,19.20
2017-07-22T21:14:31.744Z,19.30
2017-07-22T21:16:59.205Z,19.40
2017-07-22T21:19:26.665Z,19.40
2017-07-22T21:21:54.150Z,19.40
2017-07-22T21:24:22.383Z,19.30
2017-07-22T21:26:49.841Z,19.30
2017-07-22T21:29:17.302Z,19.30
2017-07-22T21:31:44.823Z,19.20
2017-07-22T21:34:12.315Z,19.20
2017-07-22T21:36:39.761Z,19.10
2017-07-22T21:39:07.217Z,19.20
2017-07-22T21:41:34.749Z,19.20
2017-07-22T21:44:02.193Z,19.20
2017-07-22T21:46:29.705Z,19.10
2017-07-22T21:48:57.148Z,19.00
2017-07-22T21:51:24.614Z,19.00
2017-07-22T21:53:52.057Z,19.00
2017-07-22T21:56:19.512Z,19.00
2017-07-22T21:58:46.965Z,18.90
2017-07-22T22:01:14.428Z,18.90
2017-07-22T22:03:41.877Z,18.80
2017-07-22T22:06:09.326Z,18.70
2017-07-22T22:08:36.764Z,18.70
2017-07-22T22:11:04.226Z,18.80
2017-07-22T22:13:31.784Z,18.90
2017-07-22T22:15:59.239Z,18.90
2017-07-22T22:18:26.719Z,18.90
2017-07-22T22:20:54.957Z,19.00
2017-07-22T22:23:22.397Z,18.90
2017-07-22T22:25:49.872Z,19.00
2017-07-22T22:28:17.299Z,18.90
2017-07-22T22:30:45.517Z,18.80
2017-07-22T22:33:12.968Z,18.70
2017-07-22T22:35:40.427Z,18.80
2017-07-22T22:38:07.933Z,18.80
2017-07-22T22:40:35.364Z,18.80
2017-07-22T22:43:02.820Z,18.80
2017-07-22T22:45:30.285Z,18.90
2017-07-22T22:47:57.841Z,19.00
2017-07-22T22:50:25.299Z,19.00
2017-07-22T22:52:52.751Z,19.00
2017-07-22T22:55:20.204Z,19.00
2017-07-22T22:57:47.765Z,18.90
2017-07-22T23:00:15.216Z,19.00
2017-07-22T23:02:42.711Z,19.10
2017-07-22T23:05:10.143Z,19.10
2017-07-22T23:07:37.581Z,19.10
2017-07-22T23:10:05.158Z,19.10
2017-07-22T23:12:32.592Z,19.20
2017-07-22T23:15:00.060Z,19.20
2017-07-22T23:17:27.495Z,19.10
2017-07-22T23:19:54.943Z,19.00
2017-07-22T23:22:22.399Z,19.00
2017-07-22T23:24:49.891Z,19.00
2017-07-22T23:27:17.339Z,19.00
2017-07-22T23:29:44.781Z,19.00
2017-07-22T23:32:12.256Z,19.00
2017-07-22T23:34:39.717Z,19.00
2017-07-22T23:37:07.175Z,19.00
2017-07-22T23:39:34.637Z,18.90
2017-07-22T23:42:02.191Z,18.90
2017-07-22T23:44:29.711Z,18.90
2017-07-22T23:46:57.181Z,18.80
2017-07-22T23:49:24.903Z,18.80
2017-07-22T23:51:52.490Z,18.80
2017-07-22T23:54:19.919Z,18.90
2017-07-22T23:56:47.416Z,19.00
2017-07-22T23:59:15.671Z,18.90
